createdAt,value
2019-01-09T00:01:38.553Z,6.90
2019-01-09T00:04:10.565Z,6.93
2019-01-09T00:06:42.567Z,6.47
2019-01-09T00:09:14.568Z,7.63
2019-01-09T00:11:46.946Z,8.00
2019-01-09T00:14:18.922Z,7.67
2019-01-09T00:16:50.943Z,9.83
2019-01-09T00:19:22.930Z,5.27
2019-01-09T00:21:54.955Z,7.87
2019-01-09T00:24:26.937Z,7.80
2019-01-09T00:26:58.945Z,6.60
2019-01-09T00:29:30.908Z,5.97
2019-01-09T00:32:02.874Z,6.30
2019-01-09T00:34:34.879Z,6.03
2019-01-09T00:37:06.829Z,8.30
2019-01-09T00:39:38.820Z,6.87
2019-01-09T00:42:10.831Z,5.13
2019-01-09T00:44:42.843Z,5.17
2019-01-09T00:47:14.806Z,5.73
2019-01-09T00:49:46.740Z,8.47
2019-01-09T00:52:18.733Z,6.23
2019-01-09T00:54:50.721Z,5.53
2019-01-09T00:57:22.713Z,6.77
2019-01-09T00:59:54.702Z,5.43
2019-01-09T01:03:11.331Z,7.17
2019-01-09T01:06:25.196Z,3.63
2019-01-09T01:09:13.960Z,5.23
2019-01-09T01:12:23.689Z,6.33
2019-01-09T01:15:39.681Z,5.73
2019-01-09T01:18:49.593Z,8.27
2019-01-09T01:21:26.406Z,4.30
2019-01-09T01:24:36.149Z,7.87
2019-01-09T01:27:36.459Z,6.40
2019-01-09T01:30:36.130Z,7.10
2019-01-09T01:33:50.797Z,5.43
2019-01-09T01:36:54.088Z,5.93
2019-01-09T01:39:59.835Z,7.20
2019-01-09T01:43:22.937Z,6.97
2019-01-09T01:46:39.782Z,5.77
2019-01-09T01:49:51.314Z,6.43
2019-01-09T01:52:51.293Z,7.27
2019-01-09T01:56:18.087Z,6.10
2019-01-09T01:59:06.063Z,4.53
2019-01-09T02:02:19.123Z,6.17
2019-01-09T02:05:14.418Z,6.37
2019-01-09T02:08:33.259Z,9.47
2019-01-09T02:11:37.156Z,10.43
2019-01-09T02:14:52.965Z,7.23
2019-01-09T02:17:34.073Z,6.97
2019-01-09T02:20:36.402Z,6.40
2019-01-09T02:23:39.061Z,4.80
2019-01-09T02:26:54.507Z,4.63
2019-01-09T02:29:55.029Z,6.43
2019-01-09T02:32:33.327Z,6.47
2019-01-09T02:35:05.341Z,6.10
2019-01-09T02:37:37.376Z,4.83
2019-01-09T02:40:09.373Z,5.00
2019-01-09T02:42:41.377Z,4.47
2019-01-09T02:45:13.354Z,5.83
2019-01-09T02:47:45.344Z,7.17
2019-01-09T02:50:17.327Z,5.33
2019-01-09T02:52:49.354Z,5.57
2019-01-09T02:55:21.325Z,8.20
2019-01-09T02:57:56.911Z,6.70
2019-01-09T03:00:27.191Z,5.53
2019-01-09T03:02:59.249Z,7.50
2019-01-09T03:05:31.196Z,8.33
2019-01-09T03:08:03.193Z,9.40
2019-01-09T03:10:35.195Z,6.90
2019-01-09T03:13:07.191Z,4.87
2019-01-09T03:15:39.196Z,7.37
2019-01-09T03:18:11.186Z,7.13
2019-01-09T03:20:43.163Z,3.93
2019-01-09T03:23:15.140Z,6.90
2019-01-09T03:25:47.158Z,4.50
2019-01-09T03:28:19.138Z,8.57
2019-01-09T03:30:51.170Z,4.20
2019-01-09T03:33:23.127Z,6.37
2019-01-09T03:35:55.142Z,5.43
2019-01-09T03:38:27.202Z,8.37
2019-01-09T03:40:59.193Z,8.10
2019-01-09T03:43:31.144Z,7.23
2019-01-09T03:46:03.138Z,7.47
2019-01-09T03:48:35.117Z,7.17
2019-01-09T03:51:07.090Z,6.37
2019-01-09T03:53:39.056Z,7.67
2019-01-09T03:56:11.047Z,5.50
2019-01-09T03:58:43.067Z,7.87
2019-01-09T04:01:15.007Z,7.40
2019-01-09T04:03:46.977Z,7.53
2019-01-09T04:06:18.964Z,8.07
2019-01-09T04:08:50.937Z,6.37
2019-01-09T04:11:22.938Z,7.60
2019-01-09T04:13:54.883Z,6.90
2019-01-09T04:16:26.865Z,7.73
2019-01-09T04:18:58.831Z,4.30
2019-01-09T04:21:30.855Z,5.93
2019-01-09T04:24:02.828Z,3.83
2019-01-09T04:26:34.888Z,6.70
2019-01-09T04:29:06.909Z,4.43
2019-01-09T04:31:38.913Z,4.83
2019-01-09T04:34:10.865Z,3.37
2019-01-09T04:36:51.139Z,4.20
2019-01-09T04:39:16.760Z,3.70
2019-01-09T04:41:48.757Z,4.10
2019-01-09T04:44:20.763Z,4.57
2019-01-09T04:46:52.761Z,4.40
2019-01-09T04:49:24.795Z,3.87
2019-01-09T04:51:56.805Z,5.90
2019-01-09T04:54:28.873Z,4.70
2019-01-09T04:57:00.863Z,4.60
2019-01-09T04:59:32.961Z,5.30
2019-01-09T05:02:04.926Z,4.80
2019-01-09T05:04:36.890Z,4.40
2019-01-09T05:07:08.887Z,4.23
2019-01-09T05:09:40.851Z,4.13
2019-01-09T05:12:12.847Z,5.03
2019-01-09T05:14:44.834Z,5.80
2019-01-09T05:17:16.817Z,7.03
2019-01-09T05:19:48.859Z,6.30
2019-01-09T05:22:20.850Z,6.70
2019-01-09T05:24:52.857Z,4.20
2019-01-09T05:27:24.830Z,7.67
2019-01-09T05:29:56.866Z,5.23
2019-01-09T05:32:28.816Z,5.60
2019-01-09T05:35:00.812Z,4.37
2019-01-09T05:37:32.785Z,5.50
2019-01-09T05:40:04.828Z,5.13
2019-01-09T05:42:36.785Z,4.03
2019-01-09T05:45:08.766Z,4.10
2019-01-09T05:47:40.733Z,5.17
2019-01-09T05:50:12.714Z,6.17
2019-01-09T05:52:44.661Z,5.00
2019-01-09T05:55:16.667Z,5.37
2019-01-09T05:57:48.617Z,4.33
2019-01-09T06:00:20.613Z,4.80
2019-01-09T06:02:52.584Z,6.27
2019-01-09T06:05:24.599Z,4.90
2019-01-09T06:07:56.554Z,6.90
2019-01-09T06:10:28.563Z,9.03
2019-01-09T06:13:00.532Z,6.10
2019-01-09T06:15:32.530Z,6.13
2019-01-09T06:18:04.482Z,5.23
2019-01-09T06:20:36.514Z,4.90
2019-01-09T06:23:08.523Z,4.50
2019-01-09T06:25:40.710Z,4.53
2019-01-09T06:28:12.734Z,3.50
2019-01-09T06:30:44.793Z,3.47
2019-01-09T06:33:16.745Z,5.50
2019-01-09T06:35:48.729Z,4.43
2019-01-09T06:38:20.723Z,4.60
2019-01-09T06:40:52.727Z,4.73
2019-01-09T06:43:24.704Z,14.57
2019-01-09T06:45:56.670Z,8.67
2019-01-09T06:48:28.683Z,6.93
2019-01-09T06:51:00.675Z,5.93
2019-01-09T06:53:32.661Z,7.27
2019-01-09T06:56:04.748Z,6.53
2019-01-09T06:58:36.847Z,6.63
2019-01-09T07:01:08.811Z,6.13
2019-01-09T07:03:40.798Z,6.53
2019-01-09T07:06:12.761Z,9.13
2019-01-09T07:08:44.738Z,8.57
2019-01-09T07:11:16.720Z,7.07
2019-01-09T07:13:48.728Z,6.57
2019-01-09T07:16:20.685Z,5.53
2019-01-09T07:18:52.701Z,6.07
2019-01-09T07:21:24.696Z,7.90
2019-01-09T07:23:56.716Z,8.67
2019-01-09T07:26:28.672Z,10.47
2019-01-09T07:29:00.689Z,6.60
2019-01-09T07:31:32.735Z,7.60
2019-01-09T07:34:04.727Z,7.10
2019-01-09T07:36:36.697Z,9.17
2019-01-09T07:39:08.719Z,6.53
2019-01-09T07:41:40.728Z,7.17
2019-01-09T07:44:12.726Z,8.43
2019-01-09T07:46:44.688Z,9.23
2019-01-09T07:49:16.667Z,6.87
2019-01-09T07:51:48.633Z,6.33
2019-01-09T07:54:20.648Z,5.17
2019-01-09T07:56:52.623Z,4.77
2019-01-09T07:59:24.631Z,6.17
2019-01-09T08:01:56.621Z,4.27
2019-01-09T08:04:28.613Z,4.70
2019-01-09T08:07:00.589Z,5.40
2019-01-09T08:09:32.599Z,4.30
2019-01-09T08:12:04.568Z,5.27
2019-01-09T08:14:36.564Z,6.70
2019-01-09T08:17:09.380Z,5.70
2019-01-09T08:19:41.359Z,7.70
2019-01-09T08:22:13.368Z,4.67
2019-01-09T08:24:45.358Z,5.77
2019-01-09T08:27:17.357Z,6.47
2019-01-09T08:29:49.374Z,6.43
2019-01-09T08:32:21.373Z,5.50
2019-01-09T08:34:53.351Z,5.30
2019-01-09T08:37:25.351Z,5.33
2019-01-09T08:39:57.336Z,10.17
2019-01-09T08:42:29.631Z,9.63
2019-01-09T08:45:01.748Z,7.10
2019-01-09T08:47:33.733Z,6.20
2019-01-09T08:50:07.034Z,8.17
2019-01-09T08:52:39.055Z,5.83
2019-01-09T08:55:11.036Z,7.83
2019-01-09T08:57:43.047Z,5.60
2019-01-09T09:00:15.027Z,7.60
2019-01-09T09:02:47.034Z,5.73
2019-01-09T09:05:19.043Z,8.80
2019-01-09T09:08:00.932Z,5.70
2019-01-09T09:10:32.914Z,6.30
2019-01-09T09:13:04.922Z,4.40
2019-01-09T09:15:36.909Z,5.93
2019-01-09T09:18:08.910Z,3.53
2019-01-09T09:20:40.886Z,4.50
2019-01-09T09:23:12.914Z,6.80
2019-01-09T09:25:44.898Z,3.57
2019-01-09T09:28:16.925Z,3.73
2019-01-09T09:30:48.907Z,4.03
2019-01-09T09:33:20.912Z,3.93
2019-01-09T09:35:52.871Z,3.77
2019-01-09T09:38:26.502Z,4.03
2019-01-09T09:40:58.509Z,4.57
2019-01-09T09:43:30.515Z,6.67
2019-01-09T09:46:02.583Z,4.50
2019-01-09T09:48:34.615Z,5.23
2019-01-09T09:51:06.590Z,7.70
2019-01-09T09:53:38.603Z,6.50
2019-01-09T09:56:10.600Z,7.03
2019-01-09T09:58:42.743Z,9.07
2019-01-09T10:01:14.702Z,10.77
2019-01-09T10:03:46.697Z,7.47
2019-01-09T10:06:18.700Z,9.93
2019-01-09T10:08:50.677Z,5.47
2019-01-09T10:11:22.703Z,6.27
2019-01-09T10:13:54.705Z,5.30
2019-01-09T10:16:26.713Z,5.83
2019-01-09T10:18:58.694Z,8.03
2019-01-09T10:21:30.702Z,7.73
2019-01-09T10:24:02.687Z,7.07
2019-01-09T10:26:34.722Z,6.40
2019-01-09T10:29:06.821Z,6.30
2019-01-09T10:31:38.866Z,6.33
2019-01-09T10:34:10.850Z,8.23
2019-01-09T10:36:42.848Z,6.53
2019-01-09T10:39:14.847Z,8.27
2019-01-09T10:41:46.845Z,12.30
2019-01-09T10:44:19.087Z,6.90
2019-01-09T10:46:51.173Z,5.90
2019-01-09T10:49:23.155Z,6.47
2019-01-09T10:51:55.172Z,6.73
2019-01-09T10:54:28.213Z,6.90
2019-01-09T10:57:00.259Z,8.23
2019-01-09T10:59:32.259Z,8.13
2019-01-09T11:02:04.369Z,5.90
2019-01-09T11:04:36.390Z,8.60
2019-01-09T11:07:08.436Z,10.90
2019-01-09T11:09:40.429Z,6.53
2019-01-09T11:12:12.424Z,7.33
2019-01-09T11:14:44.451Z,9.37
2019-01-09T11:17:16.448Z,6.20
2019-01-09T11:19:48.412Z,5.43
2019-01-09T11:22:20.577Z,7.53
2019-01-09T11:24:52.512Z,7.03
2019-01-09T11:27:24.567Z,8.67
2019-01-09T11:29:56.563Z,7.33
2019-01-09T11:32:28.555Z,11.17
2019-01-09T11:35:00.581Z,7.63
2019-01-09T11:37:32.622Z,11.80
2019-01-09T11:40:08.540Z,9.53
2019-01-09T11:42:40.574Z,5.70
2019-01-09T11:45:14.983Z,6.53
2019-01-09T11:47:47.014Z,5.63
2019-01-09T11:50:19.054Z,4.70
2019-01-09T11:52:51.125Z,6.23
2019-01-09T11:55:23.127Z,6.90
2019-01-09T11:57:55.176Z,78.67
2019-01-09T12:00:28.041Z,43.17
2019-01-09T12:03:00.170Z,9.20
2019-01-09T12:05:32.199Z,7.10
2019-01-09T12:08:04.188Z,7.33
2019-01-09T12:10:36.227Z,9.63
2019-01-09T12:13:08.221Z,8.23
2019-01-09T12:15:40.269Z,8.50
2019-01-09T12:18:12.251Z,7.27
2019-01-09T12:20:44.322Z,7.60
2019-01-09T12:23:16.320Z,12.53
2019-01-09T12:25:48.344Z,11.33
2019-01-09T12:28:20.343Z,9.43
2019-01-09T12:30:52.455Z,9.07
2019-01-09T12:33:24.466Z,9.90
2019-01-09T12:35:56.496Z,14.63
2019-01-09T12:38:28.521Z,17.57
2019-01-09T12:41:00.554Z,11.17
2019-01-09T12:43:32.577Z,12.17
2019-01-09T12:46:04.687Z,7.53
2019-01-09T12:48:36.689Z,7.57
2019-01-09T12:51:08.698Z,9.43
2019-01-09T12:53:40.709Z,11.10
2019-01-09T12:56:12.758Z,12.03
2019-01-09T12:58:44.745Z,7.53
2019-01-09T13:01:16.819Z,7.97
2019-01-09T13:03:48.812Z,10.73
2019-01-09T13:06:20.845Z,6.30
2019-01-09T13:08:52.881Z,8.63
2019-01-09T13:11:24.863Z,9.47
2019-01-09T13:13:56.915Z,9.07
2019-01-09T13:16:28.906Z,5.90
2019-01-09T13:19:00.923Z,7.93
2019-01-09T13:21:32.971Z,7.00
2019-01-09T13:24:04.998Z,5.63
2019-01-09T13:26:37.123Z,3.87
2019-01-09T13:29:09.104Z,4.73
2019-01-09T13:31:41.122Z,5.10
2019-01-09T13:34:13.163Z,4.40
2019-01-09T13:36:45.178Z,7.03
2019-01-09T13:39:17.217Z,4.83
2019-01-09T13:41:49.246Z,6.40
2019-01-09T13:44:21.275Z,8.67
2019-01-09T13:46:53.288Z,8.67
2019-01-09T13:49:25.358Z,17.07
2019-01-09T13:51:57.393Z,16.30
2019-01-09T13:54:29.455Z,9.53
2019-01-09T13:57:01.525Z,7.97
2019-01-09T13:59:33.570Z,8.07
2019-01-09T14:02:05.586Z,12.20
2019-01-09T14:04:37.601Z,13.17
2019-01-09T14:07:09.611Z,9.20
2019-01-09T14:09:41.652Z,6.93
2019-01-09T14:12:13.680Z,7.87
2019-01-09T14:14:45.688Z,5.10
2019-01-09T14:17:17.695Z,6.83
2019-01-09T14:19:49.750Z,7.63
2019-01-09T14:22:21.773Z,8.73
2019-01-09T14:24:53.793Z,5.43
2019-01-09T14:27:25.817Z,5.30
2019-01-09T14:29:57.891Z,4.97
2019-01-09T14:32:29.897Z,7.17
2019-01-09T14:35:01.965Z,5.17
2019-01-09T14:37:33.939Z,5.40
2019-01-09T14:40:06.872Z,6.20
2019-01-09T14:42:38.913Z,6.30
2019-01-09T14:45:11.479Z,3.73
2019-01-09T14:47:43.483Z,5.53
2019-01-09T14:50:17.549Z,3.93
2019-01-09T14:52:49.600Z,5.47
2019-01-09T14:55:21.661Z,6.63
2019-01-09T14:57:53.697Z,5.23
2019-01-09T15:00:26.932Z,5.00
2019-01-09T15:02:58.968Z,13.83
2019-01-09T15:05:31.005Z,5.60
2019-01-09T15:08:03.050Z,4.53
2019-01-09T15:10:35.159Z,4.83
2019-01-09T15:13:07.305Z,4.03
2019-01-09T15:15:39.348Z,7.70
2019-01-09T15:18:11.411Z,7.03
2019-01-09T15:20:43.523Z,7.50
2019-01-09T15:23:15.608Z,6.73
2019-01-09T15:25:49.053Z,7.17
2019-01-09T15:28:21.676Z,7.80
2019-01-09T15:30:53.733Z,6.10
2019-01-09T15:33:25.811Z,11.43
2019-01-09T15:35:57.874Z,7.43
2019-01-09T15:38:29.852Z,6.53
2019-01-09T15:41:01.910Z,6.60
2019-01-09T15:43:33.965Z,8.40
2019-01-09T15:46:06.021Z,11.33
2019-01-09T15:48:38.073Z,8.83
2019-01-09T15:51:10.079Z,8.23
2019-01-09T15:53:42.258Z,6.07
2019-01-09T15:56:14.310Z,7.70
2019-01-09T15:58:46.372Z,9.57
2019-01-09T16:01:18.429Z,10.27
2019-01-09T16:03:50.483Z,10.60
2019-01-09T16:06:22.512Z,7.53
2019-01-09T16:08:54.556Z,7.90
2019-01-09T16:11:26.612Z,9.93
2019-01-09T16:13:58.680Z,5.90
2019-01-09T16:16:30.726Z,8.87
2019-01-09T16:19:02.895Z,8.30
2019-01-09T16:21:34.915Z,7.93
2019-01-09T16:24:06.997Z,5.40
2019-01-09T16:26:39.012Z,8.07
2019-01-09T16:29:11.075Z,9.10
2019-01-09T16:31:43.092Z,9.90
2019-01-09T16:34:15.142Z,8.10
2019-01-09T16:36:47.151Z,6.23
2019-01-09T16:39:19.229Z,6.80
2019-01-09T16:41:51.270Z,7.57
2019-01-09T16:44:23.335Z,6.73
2019-01-09T16:46:55.364Z,7.23
2019-01-09T16:49:27.975Z,8.50
2019-01-09T16:52:01.406Z,8.13
2019-01-09T16:54:33.510Z,7.97
2019-01-09T16:57:05.523Z,8.30
2019-01-09T16:59:37.662Z,6.83
2019-01-09T17:02:09.807Z,8.90
2019-01-09T17:04:41.865Z,7.53
2019-01-09T17:07:13.959Z,7.70
2019-01-09T17:09:46.007Z,9.30
2019-01-09T17:12:18.072Z,21.73
2019-01-09T17:14:50.075Z,33.77
2019-01-09T17:17:22.109Z,16.67
2019-01-09T17:19:54.142Z,15.37
2019-01-09T17:22:26.220Z,11.30
2019-01-09T17:24:58.259Z,9.93
2019-01-09T17:27:30.322Z,9.73
2019-01-09T17:30:24.614Z,8.77
2019-01-09T17:32:56.694Z,8.43
2019-01-09T17:35:28.744Z,8.27
2019-01-09T17:38:00.776Z,10.00
2019-01-09T17:40:40.704Z,8.73
2019-01-09T17:43:06.872Z,10.40
2019-01-09T17:45:38.973Z,10.37
2019-01-09T17:48:11.023Z,11.57
2019-01-09T17:50:43.419Z,13.00
2019-01-09T17:53:15.493Z,10.37
2019-01-09T17:55:47.560Z,11.37
2019-01-09T17:58:19.694Z,10.10
2019-01-09T18:00:52.045Z,7.90
2019-01-09T18:03:24.110Z,9.83
2019-01-09T18:05:56.190Z,10.87
2019-01-09T18:08:28.272Z,9.00
2019-01-09T18:11:00.352Z,9.53
2019-01-09T18:13:32.442Z,8.57
2019-01-09T18:16:04.634Z,9.50
2019-01-09T18:18:36.756Z,9.80
2019-01-09T18:21:08.780Z,10.40
2019-01-09T18:23:40.872Z,11.60
2019-01-09T18:26:12.993Z,13.83
2019-01-09T18:28:46.512Z,23.37
2019-01-09T18:31:43.617Z,17.63
2019-01-09T18:34:42.810Z,13.13
2019-01-09T18:37:38.050Z,8.97
2019-01-09T18:40:48.018Z,8.07
2019-01-09T18:43:37.074Z,10.37
2019-01-09T18:46:36.071Z,13.23
2019-01-09T18:49:58.619Z,14.33
2019-01-09T18:52:55.328Z,11.17
2019-01-09T18:55:27.441Z,12.43
2019-01-09T18:57:59.491Z,10.20
2019-01-09T19:00:31.603Z,11.97
2019-01-09T19:03:03.717Z,13.40
2019-01-09T19:05:35.808Z,10.83
2019-01-09T19:08:07.947Z,10.87
2019-01-09T19:10:39.988Z,11.33
2019-01-09T19:13:12.014Z,11.40
2019-01-09T19:15:44.164Z,11.43
2019-01-09T19:18:16.228Z,13.87
2019-01-09T19:20:48.375Z,18.00
2019-01-09T19:23:20.388Z,16.43
2019-01-09T19:25:52.473Z,9.27
2019-01-09T19:28:24.575Z,15.17
2019-01-09T19:30:56.725Z,13.63
2019-01-09T19:33:28.846Z,18.63
2019-01-09T19:36:00.887Z,12.47
2019-01-09T19:38:33.043Z,11.17
2019-01-09T19:41:05.202Z,12.87
2019-01-09T19:43:37.280Z,12.80
2019-01-09T19:46:09.321Z,10.27
2019-01-09T19:48:41.456Z,12.47
2019-01-09T19:51:17.903Z,8.33
2019-01-09T19:53:47.775Z,7.70
2019-01-09T19:56:19.777Z,8.40
2019-01-09T19:58:51.841Z,12.97
2019-01-09T20:01:23.848Z,16.97
2019-01-09T20:03:56.056Z,9.00
2019-01-09T20:06:28.114Z,9.50
2019-01-09T20:09:00.219Z,11.30
2019-01-09T20:11:32.253Z,12.40
2019-01-09T20:14:04.586Z,13.47
2019-01-09T20:16:36.814Z,9.03
2019-01-09T20:19:09.008Z,10.73
2019-01-09T20:21:41.095Z,12.03
2019-01-09T20:24:13.253Z,9.90
2019-01-09T20:26:45.505Z,13.07
2019-01-09T20:29:17.615Z,11.77
2019-01-09T20:31:49.842Z,13.87
2019-01-09T20:34:22.007Z,28.47
2019-01-09T20:36:54.118Z,22.60
2019-01-09T20:39:26.294Z,21.07
2019-01-09T20:41:58.545Z,19.97
2019-01-09T20:44:30.642Z,13.03
2019-01-09T20:47:02.760Z,13.50
2019-01-09T20:49:34.872Z,13.53
2019-01-09T20:52:07.182Z,13.70
2019-01-09T20:54:39.275Z,18.70
2019-01-09T20:57:12.090Z,18.43
2019-01-09T20:59:44.250Z,12.67
2019-01-09T21:02:16.335Z,12.83
2019-01-09T21:04:48.611Z,13.80
2019-01-09T21:07:20.650Z,13.33
2019-01-09T21:09:53.292Z,13.60
2019-01-09T21:12:25.323Z,12.27
2019-01-09T21:14:57.371Z,15.60
2019-01-09T21:17:29.461Z,11.37
2019-01-09T21:20:01.478Z,14.10
2019-01-09T21:22:33.685Z,15.80
2019-01-09T21:25:06.174Z,15.33
2019-01-09T21:27:42.207Z,17.60
2019-01-09T21:30:15.149Z,13.77
2019-01-09T21:32:47.214Z,14.57
2019-01-09T21:35:19.217Z,13.30
2019-01-09T21:37:51.276Z,16.80
2019-01-09T21:40:25.573Z,18.00
2019-01-09T21:42:57.610Z,19.43
2019-01-09T21:45:29.616Z,15.80
2019-01-09T21:48:01.655Z,16.77
2019-01-09T21:50:33.690Z,16.07
2019-01-09T21:53:05.847Z,12.67
2019-01-09T21:55:37.860Z,15.87
2019-01-09T21:58:09.876Z,14.37
2019-01-09T22:00:41.848Z,14.73
2019-01-09T22:03:13.961Z,18.87
2019-01-09T22:05:45.992Z,15.57
2019-01-09T22:08:18.089Z,13.80
2019-01-09T22:10:50.192Z,13.70
2019-01-09T22:13:22.158Z,15.53
2019-01-09T22:15:54.114Z,15.03
2019-01-09T22:18:26.166Z,14.37
2019-01-09T22:20:58.155Z,14.80
2019-01-09T22:23:30.164Z,16.37
2019-01-09T22:26:02.334Z,13.70
2019-01-09T22:28:34.826Z,15.50
2019-01-09T22:31:06.789Z,17.47
2019-01-09T22:33:38.829Z,14.40
2019-01-09T22:36:10.861Z,13.30
2019-01-09T22:38:42.890Z,12.70
2019-01-09T22:41:14.864Z,12.40
2019-01-09T22:43:46.923Z,12.47
2019-01-09T22:46:18.946Z,13.60
2019-01-09T22:48:50.930Z,12.77
2019-01-09T22:51:22.976Z,13.90
2019-01-09T22:53:54.978Z,12.93
2019-01-09T22:56:26.985Z,15.50
2019-01-09T22:58:58.977Z,11.13
2019-01-09T23:01:31.477Z,14.30
2019-01-09T23:04:03.567Z,12.40
2019-01-09T23:06:35.566Z,11.93
2019-01-09T23:09:08.719Z,11.23
2019-01-09T23:11:40.689Z,11.63
2019-01-09T23:14:12.754Z,12.17
2019-01-09T23:16:44.745Z,12.73
2019-01-09T23:19:16.786Z,11.13
2019-01-09T23:21:48.755Z,11.50
2019-01-09T23:24:20.749Z,10.80
2019-01-09T23:26:52.749Z,10.63
2019-01-09T23:29:24.719Z,11.07
2019-01-09T23:31:56.742Z,12.30
2019-01-09T23:34:28.750Z,11.57
2019-01-09T23:37:00.739Z,13.43
2019-01-09T23:39:32.758Z,11.20
2019-01-09T23:42:04.743Z,11.50
2019-01-09T23:44:36.800Z,8.87
2019-01-09T23:47:08.795Z,9.77
2019-01-09T23:49:40.852Z,9.93
2019-01-09T23:52:14.966Z,9.43
2019-01-09T23:54:46.743Z,8.77
2019-01-09T23:57:18.744Z,10.37
2019-01-09T23:59:50.761Z,9.53
